Time;durP1;ratioP1;P1;durP2;ratioP2;P2;SDS_P1;SDS_P2;PMS_P1;PMS_P2;Temp;Humidity;BMP_temperature;BMP_pressure;BME280_temperature;BME280_humidity;BME280_pressure;Samples;Min_cycle;Max_cycle;Signal;HPM_P1;HPM_P2
2021/05/15 00:01:26;;;;;;;5.03;2.60;;;307.40;2304.00;;;;;;5090549;28;20024;-63
2021/05/15 00:03:52;;;;;;;4.90;2.72;;;307.50;2304.00;;;;;;5090741;28;20107;-62
2021/05/15 00:06:18;;;;;;;4.80;2.90;;;307.80;2304.00;;;;;;5090573;28;20107;-62
2021/05/15 00:08:43;;;;;;;4.10;2.45;;;307.50;2304.00;;;;;;5090723;28;20508;-62
2021/05/15 00:11:09;;;;;;;8.25;2.80;;;307.50;2304.00;;;;;;5090393;28;20016;-63
2021/05/15 00:13:35;;;;;;;4.30;2.50;;;307.60;2304.00;;;;;;5090631;28;20845;-62
2021/05/15 00:16:01;;;;;;;4.10;2.45;;;307.70;2304.00;;;;;;5090322;28;20047;-63
2021/05/15 00:18:27;;;;;;;3.75;2.45;;;307.60;2304.00;;;;;;5090636;28;20107;-64
2021/05/15 00:20:53;;;;;;;7.15;2.70;;;307.60;2304.00;;;;;;5090658;28;20020;-63
2021/05/15 00:23:19;;;;;;;5.28;3.13;;;307.70;2304.00;;;;;;5090206;28;20024;-63
2021/05/15 00:25:45;;;;;;;5.28;2.50;;;307.50;2304.00;;;;;;5090213;28;20060;-62
2021/05/15 00:28:11;;;;;;;4.63;2.78;;;307.50;2304.00;;;;;;5090245;28;20054;-62
2021/05/15 00:30:36;;;;;;;7.00;2.83;;;307.50;2304.00;;;;;;5090427;28;20035;-62
2021/05/15 00:33:02;;;;;;;4.68;2.80;;;307.20;2304.00;;;;;;5089614;28;20021;-63
2021/05/15 00:35:28;;;;;;;6.63;3.75;;;282.40;2278.40;;;;;;5090070;28;20028;-60
2021/05/15 00:37:54;;;;;;;4.60;2.30;;;282.30;2278.40;;;;;;5090366;28;20028;-63
2021/05/15 00:40:19;;;;;;;3.00;2.10;;;282.30;2278.40;;;;;;5090356;28;20020;-64
2021/05/15 00:42:47;;;;;;;4.55;2.30;;;282.30;2278.40;;;;;;5090047;28;20028;-64
2021/05/15 00:45:14;;;;;;;7.78;2.45;;;282.40;2278.40;;;;;;5090252;28;20024;-63
2021/05/15 00:47:40;;;;;;;3.72;2.00;;;282.40;2278.40;;;;;;5090049;28;20060;-61
2021/05/15 00:50:06;;;;;;;3.95;2.40;;;282.50;2278.40;;;;;;5090144;28;20032;-62
2021/05/15 00:52:36;;;;;;;4.28;2.30;;;282.40;2278.40;;;;;;5090101;28;20020;-63
2021/05/15 00:55:10;;;;;;;5.88;2.35;;;282.40;2278.40;;;;;;5090044;28;20044;-62
2021/05/15 00:57:37;;;;;;;6.00;2.22;;;282.40;2278.40;;;;;;5090207;28;20397;-63
2021/05/15 01:00:11;;;;;;;5.65;2.38;;;282.40;2278.40;;;;;;5090152;28;20420;-60
2021/05/15 01:02:37;;;;;;;2.95;2.10;;;282.40;2278.40;;;;;;5089792;28;20028;-63
2021/05/15 01:05:05;;;;;;;4.63;2.42;;;282.40;2278.40;;;;;;5090036;28;20069;-61
2021/05/15 01:07:31;;;;;;;5.45;3.05;;;282.20;2278.40;;;;;;5090015;28;20526;-61
2021/05/15 01:09:56;;;;;;;6.38;2.65;;;282.10;2278.40;;;;;;5089822;28;20126;-64
2021/05/15 01:12:22;;;;;;;5.35;2.30;;;282.00;2278.40;;;;;;5089920;28;20107;-62
2021/05/15 01:14:48;;;;;;;4.32;2.00;;;282.00;2278.40;;;;;;5089877;28;20020;-61
2021/05/15 01:17:16;;;;;;;5.07;2.13;;;282.20;2278.40;;;;;;5089802;28;20772;-61
2021/05/15 01:19:42;;;;;;;3.55;2.08;;;282.20;2278.40;;;;;;5089855;28;20048;-62
2021/05/15 01:22:10;;;;;;;4.18;1.80;;;282.30;2278.40;;;;;;5089663;28;20020;-64
2021/05/15 01:24:36;;;;;;;3.75;2.22;;;282.40;2278.40;;;;;;5089804;28;20107;-63
2021/05/15 01:27:07;;;;;;;5.97;2.38;;;282.50;2278.40;;;;;;5090060;28;20047;-65
2021/05/15 01:29:33;;;;;;;4.43;2.15;;;282.50;2278.40;;;;;;5089865;28;20108;-64
2021/05/15 01:31:59;;;;;;;3.95;2.67;;;307.20;2304.00;;;;;;5089874;28;20517;-63
2021/05/15 01:34:25;;;;;;;5.57;2.22;;;307.30;2304.00;;;;;;5089706;28;20028;-65
2021/05/15 01:36:51;;;;;;;4.80;2.67;;;307.30;2304.00;;;;;;5089620;28;20401;-62
2021/05/15 01:39:17;;;;;;;7.45;2.55;;;307.30;2304.00;;;;;;5089479;28;20085;-66
2021/05/15 01:41:44;;;;;;;8.48;1.75;;;307.30;2304.00;;;;;;5089741;28;20474;-63
2021/05/15 01:44:10;;;;;;;3.38;2.38;;;307.30;2304.00;;;;;;5091518;28;20016;-64
2021/05/15 01:46:36;;;;;;;4.28;1.55;;;307.30;2304.00;;;;;;5092958;28;20407;-64
2021/05/15 01:49:02;;;;;;;5.97;2.45;;;307.40;2304.00;;;;;;5093372;28;20424;-62
2021/05/15 01:51:28;;;;;;;4.35;2.03;;;307.50;2304.00;;;;;;5093122;28;20032;-62
2021/05/15 01:53:53;;;;;;;5.35;2.47;;;307.40;2304.00;;;;;;5093098;28;20385;-64
2021/05/15 01:56:24;;;;;;;3.25;2.08;;;307.30;2304.00;;;;;;5092914;28;20111;-61
2021/05/15 01:58:51;;;;;;;6.50;2.22;;;307.30;2304.00;;;;;;5093230;28;20020;-62
2021/05/15 02:01:21;;;;;;;4.85;2.45;;;282.50;2278.40;;;;;;5092957;28;20039;-63
2021/05/15 02:03:48;;;;;;;6.50;2.70;;;282.50;2278.40;;;;;;5092765;28;20118;-60
2021/05/15 02:06:14;;;;;;;4.60;2.83;;;282.40;2278.40;;;;;;5092849;28;20031;-59
2021/05/15 02:08:45;;;;;;;6.97;2.70;;;282.50;2278.40;;;;;;5092795;28;20099;-62
2021/05/15 02:11:16;;;;;;;4.03;1.95;;;282.50;2278.40;;;;;;5092954;28;20039;-62
2021/05/15 02:13:44;;;;;;;7.65;2.38;;;282.50;2278.40;;;;;;5092681;28;20482;-61
2021/05/15 02:16:10;;;;;;;4.10;2.28;;;282.50;2278.40;;;;;;5092466;28;20481;-59
2021/05/15 02:18:36;;;;;;;4.07;2.20;;;282.50;2278.40;;;;;;5092433;28;20030;-63
2021/05/15 02:21:02;;;;;;;5.15;2.13;;;282.40;2278.40;;;;;;5092499;28;20116;-65
2021/05/15 02:23:27;;;;;;;4.32;2.50;;;307.20;2304.00;;;;;;5092528;28;20020;-62
2021/05/15 02:25:54;;;;;;;6.68;2.35;;;307.30;2304.00;;;;;;5092581;28;20081;-61
2021/05/15 02:28:20;;;;;;;5.20;2.80;;;307.40;2304.00;;;;;;5092677;28;20064;-63
2021/05/15 02:30:47;;;;;;;3.85;2.13;;;307.50;2304.00;;;;;;5092407;28;20119;-62
2021/05/15 02:33:13;;;;;;;5.85;2.65;;;307.60;2304.00;;;;;;5092561;28;20052;-60
2021/05/15 02:35:39;;;;;;;5.32;2.05;;;307.70;2304.00;;;;;;5092155;28;20028;-62
2021/05/15 02:38:06;;;;;;;3.95;2.40;;;307.70;2304.00;;;;;;5092857;28;20076;-62
2021/05/15 02:40:32;;;;;;;6.82;2.55;;;307.80;2304.00;;;;;;5092284;28;20039;-60
2021/05/15 02:42:58;;;;;;;3.00;1.67;;;307.80;2304.00;;;;;;5092126;28;20020;-63
2021/05/15 02:45:25;;;;;;;6.20;2.65;;;307.80;2304.00;;;;;;5092273;28;20028;-62
2021/05/15 02:47:53;;;;;;;3.92;2.20;;;307.90;2304.00;;;;;;5092292;28;20476;-63
2021/05/15 02:50:20;;;;;;;2.80;2.08;;;307.90;2304.00;;;;;;5091870;28;20031;-60
2021/05/15 02:52:46;;;;;;;5.05;2.58;;;307.80;2304.00;;;;;;5091831;28;20026;-63
2021/05/15 02:55:15;;;;;;;4.28;2.35;;;307.60;2304.00;;;;;;5090913;28;20374;-63
2021/05/15 02:57:43;;;;;;;9.70;3.10;;;307.60;2304.00;;;;;;5092052;28;20125;-62
2021/05/15 03:00:12;;;;;;;9.02;4.00;;;307.60;2304.00;;;;;;5090454;28;20073;-63
2021/05/15 03:02:37;;;;;;;5.80;2.17;;;307.70;2304.00;;;;;;5091718;28;20046;-62
2021/05/15 03:05:09;;;;;;;3.83;1.88;;;307.60;2304.00;;;;;;5091866;28;20028;-61
2021/05/15 03:07:35;;;;;;;18.75;9.40;;;307.50;2304.00;;;;;;5091789;28;20055;-61
2021/05/15 03:10:00;;;;;;;18.73;11.55;;;307.40;2304.00;;;;;;5091997;28;20462;-62
2021/05/15 03:12:26;;;;;;;13.90;8.65;;;307.50;2304.00;;;;;;5091526;28;20428;-61
2021/05/15 03:14:52;;;;;;;7.85;5.28;;;307.40;2304.00;;;;;;5091535;28;20023;-62
2021/05/15 03:17:18;;;;;;;8.70;4.43;;;307.50;2304.00;;;;;;5091287;28;20024;-60
2021/05/15 03:19:44;;;;;;;6.30;3.85;;;307.40;2304.00;;;;;;5091500;28;20024;-61
2021/05/15 03:22:09;;;;;;;9.75;2.72;;;307.50;2304.00;;;;;;5091148;28;20020;-62
2021/05/15 03:24:35;;;;;;;8.15;2.75;;;307.50;2304.00;;;;;;5091256;28;20024;-60
2021/05/15 03:27:01;;;;;;;3.88;2.20;;;307.60;2304.00;;;;;;5091417;28;20020;-62
2021/05/15 03:29:27;;;;;;;4.30;2.30;;;307.60;2304.00;;;;;;5091287;28;20035;-62
2021/05/15 03:31:54;;;;;;;4.28;2.47;;;307.60;2304.00;;;;;;5091482;28;20042;-59
2021/05/15 03:34:20;;;;;;;7.10;2.75;;;307.30;2304.00;;;;;;5091062;28;20029;-63
2021/05/15 03:36:46;;;;;;;6.07;3.05;;;282.50;2278.40;;;;;;5091013;28;20032;-60
2021/05/15 03:39:18;;;;;;;4.55;2.63;;;307.20;2304.00;;;;;;5091091;28;20497;-62
2021/05/15 03:41:47;;;;;;;5.72;2.47;;;307.40;2304.00;;;;;;5091175;28;20035;-62
2021/05/15 03:44:13;;;;;;;7.47;2.25;;;307.60;2304.00;;;;;;5091090;28;20028;-61
2021/05/15 03:46:40;;;;;;;4.68;2.83;;;307.70;2304.00;;;;;;5090585;28;20052;-62
2021/05/15 03:49:05;;;;;;;5.55;2.83;;;307.80;2304.00;;;;;;5090759;28;20077;-60
2021/05/15 03:51:32;;;;;;;7.47;2.95;;;308.00;2304.00;;;;;;5090785;28;20024;-62
2021/05/15 03:53:58;;;;;;;4.50;2.33;;;308.10;2304.00;;;;;;5090670;28;20028;-62
2021/05/15 03:56:24;;;;;;;3.90;2.40;;;332.80;2329.60;;;;;;5090613;28;20032;-60
2021/05/15 03:58:49;;;;;;;13.00;3.13;;;332.90;2329.60;;;;;;5090842;28;20020;-62
2021/05/15 04:01:15;;;;;;;5.03;2.50;;;332.90;2329.60;;;;;;5090685;28;20385;-63
2021/05/15 04:03:41;;;;;;;6.20;3.10;;;333.00;2329.60;;;;;;5090810;28;20027;-64
2021/05/15 04:06:06;;;;;;;9.10;2.50;;;333.20;2304.00;;;;;;5090251;28;20028;-63
2021/05/15 04:08:32;;;;;;;14.68;2.60;;;333.20;2278.40;;;;;;5090557;28;20419;-63
2021/05/15 04:10:58;;;;;;;6.10;2.60;;;333.30;2304.00;;;;;;5088852;28;20142;-64
2021/05/15 04:16:09;;;;;;;6.20;2.53;;;333.20;2304.00;;;;;;5090502;28;20047;-60
2021/05/15 04:18:34;;;;;;;6.75;2.40;;;333.10;2329.60;;;;;;5090388;28;20028;-60
2021/05/15 04:21:01;;;;;;;5.60;2.40;;;333.20;2329.60;;;;;;5090620;28;20374;-63
2021/05/15 04:23:27;;;;;;;6.88;2.55;;;333.20;2329.60;;;;;;5090869;28;20110;-61
2021/05/15 04:25:54;;;;;;;4.85;2.15;;;333.00;2329.60;;;;;;5090630;28;20492;-63
2021/05/15 04:28:19;;;;;;;5.38;2.40;;;333.20;2329.60;;;;;;5090502;28;20016;-60
2021/05/15 04:30:45;;;;;;;9.88;3.30;;;333.30;2329.60;;;;;;5090261;28;20024;-58
2021/05/15 04:33:11;;;;;;;4.82;2.75;;;333.20;2329.60;;;;;;5090234;28;20067;-58
2021/05/15 04:35:37;;;;;;;9.00;2.53;;;333.20;2329.60;;;;;;5090073;28;20059;-60
2021/05/15 04:38:05;;;;;;;10.45;2.97;;;333.50;2278.40;;;;;;5090200;28;20085;-59
2021/05/15 04:40:31;;;;;;;12.07;4.13;;;358.40;2252.80;;;;;;5090292;28;20543;-59
2021/05/15 04:42:58;;;;;;;4.30;2.40;;;358.40;2227.20;;;;;;5090285;28;20081;-61
2021/05/15 04:45:27;;;;;;;8.38;2.72;;;358.50;2201.60;;;;;;5090079;28;20106;-59
2021/05/15 04:47:52;;;;;;;5.97;4.30;;;384.60;2048.00;;;;;;5090345;28;20040;-62
2021/05/15 04:50:18;;;;;;;5.85;4.03;;;487.00;1612.80;;;;;;5090048;28;20496;-61
2021/05/15 04:52:44;;;;;;;4.38;3.92;;;563.40;1408.00;;;;;;5089886;28;20028;-61
2021/05/15 04:55:10;;;;;;;5.10;4.60;;;614.40;1254.40;;;;;;5090272;28;20024;-62
2021/05/15 04:57:35;;;;;;;6.55;4.60;;;640.50;1100.80;;;;;;5089871;28;20381;-61
2021/05/15 05:00:02;;;;;;;6.95;4.25;;;666.50;1049.60;;;;;;5090117;28;20021;-61
2021/05/15 05:02:27;;;;;;;5.30;4.43;;;716.80;972.80;;;;;;5089973;28;20028;-63
2021/05/15 05:04:53;;;;;;;6.43;4.35;;;717.50;921.60;;;;;;5090196;28;20791;-60
2021/05/15 05:07:19;;;;;;;5.50;4.05;;;666.50;998.40;;;;;;5089293;28;20039;-62
2021/05/15 05:09:45;;;;;;;7.65;6.90;;;665.90;1049.60;;;;;;5089515;28;20024;-60
2021/05/15 05:12:10;;;;;;;9.52;8.63;;;717.40;921.60;;;;;;5089661;28;20107;-59
2021/05/15 05:14:38;;;;;;;10.55;9.65;;;743.30;870.40;;;;;;5092641;28;20103;-61
2021/05/15 05:17:05;;;;;;;7.55;6.82;;;768.20;844.80;;;;;;5099921;28;20040;-63
2021/05/15 05:19:32;;;;;;;7.13;6.38;;;793.60;844.80;;;;;;5102973;28;20024;-63
2021/05/15 05:22:00;;;;;;;4.57;4.18;;;794.20;819.20;;;;;;5105566;28;20066;-63
2021/05/15 05:24:25;;;;;;;5.10;4.70;;;768.90;819.20;;;;;;5105593;28;20031;-62
2021/05/15 05:26:51;;;;;;;6.47;5.88;;;768.50;819.20;;;;;;5100444;28;20020;-64
2021/05/15 05:29:17;;;;;;;7.45;6.72;;;819.30;793.60;;;;;;5091875;28;20055;-63
2021/05/15 05:31:44;;;;;;;8.77;6.00;;;845.00;768.00;;;;;;5092970;28;20030;-63
2021/05/15 05:34:11;;;;;;;7.43;6.75;;;845.40;742.40;;;;;;5093028;28;20051;-62
2021/05/15 05:36:37;;;;;;;7.10;6.40;;;871.30;665.60;;;;;;5092432;28;20118;-61
2021/05/15 05:39:10;;;;;;;7.25;6.50;;;870.80;691.20;;;;;;5091308;28;20040;-61
2021/05/15 05:41:36;;;;;;;7.65;7.00;;;870.80;691.20;;;;;;5093496;28;20052;-65
2021/05/15 05:44:02;;;;;;;6.72;5.55;;;871.00;691.20;;;;;;5093466;28;20386;-65
2021/05/15 05:46:27;;;;;;;10.27;7.60;;;844.80;768.00;;;;;;5093007;28;20135;-62
2021/05/15 05:48:53;;;;;;;10.85;7.78;;;870.80;691.20;;;;;;5093491;28;20063;-64
2021/05/15 05:51:19;;;;;;;10.57;9.20;;;896.50;665.60;;;;;;5092951;28;20462;-66
2021/05/15 05:53:44;;;;;;;9.82;8.93;;;896.40;640.00;;;;;;5092711;28;20512;-65
2021/05/15 05:56:10;;;;;;;9.73;8.82;;;896.90;614.40;;;;;;5093310;28;20043;-62
2021/05/15 05:58:36;;;;;;;12.13;11.13;;;896.40;640.00;;;;;;5092938;28;20148;-67
2021/05/15 06:01:02;;;;;;;13.35;12.27;;;922.30;614.40;;;;;;5093271;28;20054;-63
2021/05/15 06:03:28;;;;;;;11.45;10.48;;;948.00;588.80;;;;;;5091631;28;20035;-64
2021/05/15 06:05:53;;;;;;;11.98;10.88;;;948.10;563.20;;;;;;5093133;28;20028;-63
2021/05/15 06:08:20;;;;;;;11.35;10.45;;;972.90;588.80;;;;;;5092824;28;20028;-62
2021/05/15 06:10:47;;;;;;;12.60;11.65;;;947.40;588.80;;;;;;5092692;28;20475;-63
2021/05/15 06:13:18;;;;;;;14.35;13.05;;;947.60;588.80;;;;;;5092960;28;20031;-61
2021/05/15 06:15:43;;;;;;;14.15;13.15;;;947.90;563.20;;;;;;5092845;28;20374;-61
2021/05/15 06:18:09;;;;;;;13.98;12.88;;;947.60;563.20;;;;;;5092520;28;20032;-63
2021/05/15 06:20:35;;;;;;;12.07;11.07;;;972.90;563.20;;;;;;5092540;28;20031;-62
2021/05/15 06:23:01;;;;;;;11.25;10.25;;;973.20;537.60;;;;;;5092541;28;20115;-61
2021/05/15 06:25:27;;;;;;;10.55;9.65;;;973.70;563.20;;;;;;5092827;28;20107;-64
2021/05/15 06:27:52;;;;;;;10.82;9.73;;;922.20;588.80;;;;;;5092809;28;20470;-63
2021/05/15 06:30:19;;;;;;;11.10;10.15;;;896.00;640.00;;;;;;5092391;28;20545;-60
2021/05/15 06:32:44;;;;;;;10.20;8.60;;;896.50;614.40;;;;;;5092408;28;20024;-62
2021/05/15 06:35:11;;;;;;;10.48;9.48;;;921.90;640.00;;;;;;5092294;28;20030;-62
2021/05/15 06:37:37;;;;;;;9.30;8.27;;;871.30;640.00;;;;;;5092128;28;20039;-64
2021/05/15 06:40:04;;;;;;;13.38;8.77;;;870.50;691.20;;;;;;5092464;28;20020;-62
2021/05/15 06:42:30;;;;;;;9.10;8.18;;;845.20;716.80;;;;;;5092283;28;20020;-60
2021/05/15 06:44:56;;;;;;;13.50;10.68;;;845.20;716.80;;;;;;5090946;28;20024;-62
2021/05/15 06:47:21;;;;;;;16.10;10.48;;;819.80;742.40;;;;;;5091939;28;20048;-64
2021/05/15 06:49:49;;;;;;;11.55;8.13;;;794.50;768.00;;;;;;5091978;28;20024;-63
2021/05/15 06:52:15;;;;;;;10.38;6.20;;;768.30;819.20;;;;;;5091626;28;20430;-61
2021/05/15 06:54:42;;;;;;;12.02;5.88;;;742.90;819.20;;;;;;5092153;28;20079;-62
2021/05/15 06:57:07;;;;;;;7.03;5.55;;;716.80;896.00;;;;;;5091902;28;20036;-61
2021/05/15 06:59:34;;;;;;;12.20;5.68;;;666.50;947.20;;;;;;5091205;28;20488;-59
2021/05/15 07:02:00;;;;;;;10.48;6.85;;;666.10;947.20;;;;;;5091872;28;20462;-64
2021/05/15 07:04:26;;;;;;;13.07;5.18;;;665.60;972.80;;;;;;5091553;28;20407;-61
2021/05/15 07:06:52;;;;;;;11.48;6.70;;;640.50;947.20;;;;;;5091403;28;20031;-62
2021/05/15 07:09:18;;;;;;;10.48;6.97;;;640.40;998.40;;;;;;5089652;28;20116;-63
2021/05/15 07:11:43;;;;;;;14.38;7.28;;;640.60;972.80;;;;;;5086009;28;20052;-60
2021/05/15 07:14:09;;;;;;;14.75;7.57;;;640.20;998.40;;;;;;5087076;28;20024;-64
2021/05/15 07:16:35;;;;;;;11.85;5.90;;;665.60;972.80;;;;;;5086326;28;20134;-64
2021/05/15 07:19:01;;;;;;;10.23;6.78;;;691.20;947.20;;;;;;5087391;28;20035;-65
2021/05/15 07:21:26;;;;;;;26.20;7.85;;;666.00;947.20;;;;;;5087751;28;20040;-63
2021/05/15 07:23:52;;;;;;;16.52;9.63;;;640.00;998.40;;;;;;5084647;28;20024;-62
2021/05/15 07:26:18;;;;;;;9.18;5.00;;;665.70;947.20;;;;;;5087656;28;20024;-65
2021/05/15 07:28:44;;;;;;;11.93;5.85;;;666.20;947.20;;;;;;5085713;28;20023;-59
2021/05/15 07:31:10;;;;;;;11.77;5.07;;;691.90;870.40;;;;;;5088568;28;20158;-62
2021/05/15 07:33:36;;;;;;;9.35;4.65;;;692.10;819.20;;;;;;5088228;28;20032;-61
2021/05/15 07:36:02;;;;;;;6.70;4.72;;;717.10;844.80;;;;;;5088384;28;20081;-63
2021/05/15 07:38:28;;;;;;;11.30;5.53;;;716.80;896.00;;;;;;5087444;28;20028;-64
2021/05/15 07:40:55;;;;;;;16.10;6.40;;;666.30;947.20;;;;;;5088151;28;20118;-64
2021/05/15 07:43:26;;;;;;;9.23;5.80;;;691.40;947.20;;;;;;5088294;28;20107;-62
2021/05/15 07:45:53;;;;;;;17.38;5.50;;;716.80;947.20;;;;;;5088037;28;20452;-63
2021/05/15 07:48:28;;;;;;;7.43;4.80;;;691.80;896.00;;;;;;5087297;28;20032;-60
2021/05/15 07:50:58;;;;;;;8.88;5.10;;;691.40;921.60;;;;;;5087832;28;20028;-61
2021/05/15 07:53:25;;;;;;;13.02;5.32;;;640.70;972.80;;;;;;5085210;28;20107;-62
2021/05/15 07:55:51;;;;;;;12.15;6.10;;;665.90;998.40;;;;;;5086861;28;20062;-63
2021/05/15 07:58:17;;;;;;;11.20;6.43;;;640.70;1024.00;;;;;;5088215;28;20028;-62
2021/05/15 08:00:43;;;;;;;12.30;5.68;;;640.70;1024.00;;;;;;5089353;28;20060;-64
2021/05/15 08:03:09;;;;;;;24.95;13.85;;;615.20;1100.80;;;;;;5089036;28;20056;-61
2021/05/15 08:05:35;;;;;;;14.20;7.53;;;640.40;1049.60;;;;;;5088832;28;20107;-62
2021/05/15 08:08:02;;;;;;;19.30;7.20;;;615.30;1075.20;;;;;;5088881;28;20047;-60
2021/05/15 08:10:31;;;;;;;19.15;12.13;;;615.30;1100.80;;;;;;5089132;28;20035;-63
2021/05/15 08:12:58;;;;;;;23.27;8.70;;;615.30;1075.20;;;;;;5088967;28;20107;-58
2021/05/15 08:15:25;;;;;;;14.07;7.85;;;665.80;1049.60;;;;;;5088890;28;20044;-56
2021/05/15 08:17:52;;;;;;;35.05;20.60;;;717.70;896.00;;;;;;5088475;28;20036;-60
2021/05/15 08:20:18;;;;;;;27.38;18.13;;;742.50;896.00;;;;;;5088682;28;20058;-59
2021/05/15 08:22:44;;;;;;;16.38;9.13;;;717.00;947.20;;;;;;5088847;28;20381;-56
2021/05/15 08:25:12;;;;;;;12.32;7.18;;;716.90;947.20;;;;;;5088765;28;20024;-60
2021/05/15 08:27:40;;;;;;;9.90;6.47;;;691.40;1024.00;;;;;;5090749;28;20039;-59
2021/05/15 08:30:08;;;;;;;7.72;5.50;;;717.10;972.80;;;;;;5090377;28;20030;-61
2021/05/15 08:32:34;;;;;;;11.77;5.43;;;717.40;998.40;;;;;;5090312;28;20032;-65
2021/05/15 08:35:00;;;;;;;7.50;5.40;;;717.30;998.40;;;;;;5090347;28;20101;-64
2021/05/15 08:37:27;;;;;;;7.43;5.88;;;742.60;998.40;;;;;;5089952;28;20055;-58
2021/05/15 08:39:53;;;;;;;11.57;5.70;;;717.20;1024.00;;;;;;5090253;28;20025;-63
2021/05/15 08:42:20;;;;;;;9.20;5.72;;;691.40;1075.20;;;;;;5090104;28;20027;-62
2021/05/15 08:44:49;;;;;;;7.75;4.85;;;666.30;1126.40;;;;;;5090094;28;20028;-63
2021/05/15 08:47:16;;;;;;;10.00;4.35;;;665.70;1152.00;;;;;;5089969;28;20048;-58
2021/05/15 08:49:45;;;;;;;7.63;4.88;;;666.00;1126.40;;;;;;5090302;28;20074;-63
2021/05/15 08:52:12;;;;;;;7.13;5.10;;;665.90;1100.80;;;;;;5090358;28;20043;-61
2021/05/15 08:54:38;;;;;;;6.82;4.00;;;640.20;1152.00;;;;;;5092891;28;20020;-59
2021/05/15 08:57:04;;;;;;;6.43;3.70;;;640.60;1049.60;;;;;;5094253;28;20044;-62
2021/05/15 08:59:30;;;;;;;6.20;3.05;;;666.20;1024.00;;;;;;5094452;28;20051;-57
2021/05/15 09:01:56;;;;;;;8.38;3.85;;;665.70;1024.00;;;;;;5094108;28;20058;-58
2021/05/15 09:04:25;;;;;;;4.88;3.60;;;640.70;998.40;;;;;;5094070;28;20375;-62
2021/05/15 09:06:51;;;;;;;7.18;3.67;;;640.70;972.80;;;;;;5093912;28;20063;-59
2021/05/15 09:09:17;;;;;;;5.10;2.83;;;640.70;972.80;;;;;;5092567;28;20032;-62
2021/05/15 09:11:43;;;;;;;5.63;3.65;;;640.50;998.40;;;;;;5093930;28;20077;-59
2021/05/15 09:14:17;;;;;;;9.65;3.60;;;640.30;947.20;;;;;;5093901;28;20024;-58
2021/05/15 09:16:51;;;;;;;8.82;3.88;;;640.10;947.20;;;;;;5093899;28;20043;-61
2021/05/15 09:19:22;;;;;;;7.97;2.95;;;615.00;998.40;;;;;;5093596;28;20085;-61
2021/05/15 09:21:58;;;;;;;11.98;3.20;;;615.10;998.40;;;;;;5093801;28;20106;-63
2021/05/15 09:24:32;;;;;;;5.18;3.10;;;640.20;998.40;;;;;;5093633;28;20077;-57
2021/05/15 09:27:01;;;;;;;8.77;2.85;;;615.00;1049.60;;;;;;5093596;28;20091;-58
2021/05/15 09:29:28;;;;;;;5.65;2.80;;;615.10;1049.60;;;;;;5093683;28;20036;-58
2021/05/15 09:31:53;;;;;;;3.60;2.67;;;640.10;1024.00;;;;;;5092338;28;20021;-60
2021/05/15 09:34:21;;;;;;;5.07;3.10;;;615.30;1049.60;;;;;;5093514;28;20024;-59
2021/05/15 09:36:47;;;;;;;6.88;3.50;;;615.10;1075.20;;;;;;5093075;28;20040;-60
2021/05/15 09:39:17;;;;;;;7.25;3.30;;;614.70;1126.40;;;;;;5093443;28;20020;-58
2021/05/15 09:42:00;;;;;;;6.03;3.65;;;589.30;1177.60;;;;;;5093493;28;20020;-62
2021/05/15 09:44:30;;;;;;;10.30;3.37;;;589.60;1152.00;;;;;;5093027;28;20138;-61
2021/05/15 09:46:57;;;;;;;5.65;2.63;;;589.40;1152.00;;;;;;5091995;28;20330;-65
2021/05/15 09:49:25;;;;;;;5.82;2.72;;;589.50;1177.60;;;;;;5092092;28;20432;-65
2021/05/15 09:51:55;;;;;;;5.65;3.30;;;589.40;1177.60;;;;;;5092128;28;20081;-62
2021/05/15 09:54:30;;;;;;;8.07;3.65;;;589.70;1152.00;;;;;;5090635;28;20032;-63
2021/05/15 09:56:57;;;;;;;4.05;2.25;;;589.30;1203.20;;;;;;5091624;28;20040;-66
2021/05/15 09:59:31;;;;;;;5.32;2.63;;;589.30;1152.00;;;;;;5091866;28;20020;-66
2021/05/15 10:02:04;;;;;;;;;;;589.40;1100.80;;;;;;5092113;28;20024;-66
2021/05/15 10:04:31;;;;;;;6.18;2.20;;;589.60;1100.80;;;;;;5091153;28;19911;-63
2021/05/15 10:06:57;;;;;;;8.85;3.60;;;589.40;1126.40;;;;;;5091742;28;20032;-62
2021/05/15 10:09:33;;;;;;;2.78;1.90;;;589.60;1100.80;;;;;;5091580;28;20020;-66
2021/05/15 10:12:01;;;;;;;7.28;2.40;;;614.40;1024.00;;;;;;5091575;28;20115;-61
2021/05/15 10:14:28;;;;;;;3.90;2.40;;;614.40;1049.60;;;;;;5091177;28;20024;-64
2021/05/15 10:16:54;;;;;;;3.35;2.28;;;614.40;1075.20;;;;;;5091259;28;20071;-63
2021/05/15 10:19:20;;;;;;;4.25;2.30;;;614.40;1049.60;;;;;;5091692;28;20470;-61
2021/05/15 10:21:47;;;;;;;4.93;2.80;;;614.40;1024.00;;;;;;5091290;28;20035;-61
2021/05/15 10:24:21;;;;;;;6.80;3.10;;;615.10;1024.00;;;;;;5091362;28;20086;-63
2021/05/15 10:26:57;;;;;;;5.75;2.83;;;640.00;998.40;;;;;;5091442;28;20032;-62
2021/05/15 10:29:35;;;;;;;9.55;2.60;;;640.50;1049.60;;;;;;5091557;28;20107;-62
2021/05/15 10:32:00;;;;;;;5.82;2.63;;;640.50;972.80;;;;;;5091528;28;20027;-56
2021/05/15 10:34:34;;;;;;;6.82;2.47;;;640.90;1024.00;;;;;;5091448;28;20393;-60
2021/05/15 10:37:01;;;;;;;;;;;640.10;1075.20;;;;;;5091319;28;20058;-62
2021/05/15 10:39:31;;;;;;;5.93;3.00;;;640.70;1075.20;;;;;;5091535;28;19904;-62
2021/05/15 10:41:58;;;;;;;5.97;2.78;;;640.20;1075.20;;;;;;5090537;28;20094;-61
2021/05/15 10:44:24;;;;;;;5.93;2.67;;;640.60;1049.60;;;;;;5090942;28;20097;-58
2021/05/15 10:46:51;;;;;;;4.78;2.70;;;640.90;1024.00;;;;;;5065819;28;727812;-64
2021/05/15 10:49:17;;;;;;;9.65;2.92;;;666.00;1024.00;;;;;;5091515;28;20034;-60
2021/05/15 10:51:48;;;;;;;5.68;3.25;;;665.70;1049.60;;;;;;5091636;28;20020;-65
2021/05/15 10:54:36;;;;;;;7.15;2.75;;;665.60;1049.60;;;;;;5089605;28;20035;-59
2021/05/15 10:57:09;;;;;;;7.50;3.35;;;665.70;1024.00;;;;;;5090014;28;20113;-64
2021/05/15 10:59:40;;;;;;;6.82;2.80;;;640.80;1049.60;;;;;;5091922;28;20461;-62
2021/05/15 11:02:09;;;;;;;7.80;3.20;;;640.60;1024.00;;;;;;5091594;28;20490;-63
2021/05/15 11:04:46;;;;;;;8.55;4.75;;;640.70;1075.20;;;;;;5091744;28;20101;-59
2021/05/15 11:07:12;;;;;;;7.15;2.83;;;665.70;1075.20;;;;;;5091703;28;20020;-64
2021/05/15 11:09:52;;;;;;;4.82;2.92;;;665.60;1075.20;;;;;;5091695;28;20024;-65
2021/05/15 11:12:19;;;;;;;5.25;2.78;;;665.70;1049.60;;;;;;5091521;28;20047;-58
2021/05/15 11:14:50;;;;;;;5.63;3.15;;;640.70;1049.60;;;;;;5091684;28;20381;-59
2021/05/15 11:17:26;;;;;;;7.30;2.90;;;665.70;1049.60;;;;;;5090334;28;20063;-60
2021/05/15 11:19:55;;;;;;;5.15;2.97;;;640.70;1024.00;;;;;;5091456;28;20356;-58
2021/05/15 11:22:34;;;;;;;4.90;2.97;;;665.60;1075.20;;;;;;5091410;28;20040;-58
2021/05/15 11:25:01;;;;;;;20.90;4.97;;;665.80;1049.60;;;;;;5091278;28;20377;-65
2021/05/15 11:27:29;;;;;;;7.43;3.05;;;640.60;1024.00;;;;;;5091156;28;20107;-65
2021/05/15 11:30:12;;;;;;;4.88;4.07;;;640.50;1049.60;;;;;;5090739;28;20028;-59
2021/05/15 11:32:39;;;;;;;5.88;3.67;;;640.60;1049.60;;;;;;5091072;28;20114;-63
2021/05/15 11:35:06;;;;;;;9.57;3.60;;;640.60;1049.60;;;;;;5091112;28;20117;-63
2021/05/15 11:37:32;;;;;;;8.85;2.95;;;640.80;1024.00;;;;;;5091122;28;20064;-65
2021/05/15 11:39:58;;;;;;;11.38;2.97;;;665.70;1049.60;;;;;;5091012;28;20048;-60
2021/05/15 11:42:28;;;;;;;9.70;3.33;;;665.90;1024.00;;;;;;5091396;28;20031;-64
2021/05/15 11:44:54;;;;;;;7.63;3.45;;;640.60;1024.00;;;;;;5091061;28;20043;-64
2021/05/15 11:47:24;;;;;;;7.03;3.13;;;640.70;998.40;;;;;;5090436;28;20489;-61
2021/05/15 11:50:00;;;;;;;6.47;3.55;;;640.50;1049.60;;;;;;5090823;28;20044;-63
2021/05/15 11:52:34;;;;;;;8.95;3.30;;;640.90;1049.60;;;;;;5090653;28;20024;-64
2021/05/15 11:55:01;;;;;;;9.07;3.33;;;640.80;1024.00;;;;;;5090808;28;20103;-62
2021/05/15 11:57:29;;;;;;;5.35;3.15;;;640.70;1024.00;;;;;;5090656;28;20035;-67
2021/05/15 12:00:15;;;;;;;4.85;3.35;;;640.40;1049.60;;;;;;5090669;28;20024;-63
2021/05/15 12:02:47;;;;;;;3.63;2.72;;;640.60;1024.00;;;;;;5090760;28;20028;-65
2021/05/15 12:05:17;;;;;;;6.68;3.03;;;640.10;1049.60;;;;;;5090777;28;20013;-65
2021/05/15 12:07:53;;;;;;;15.63;4.63;;;640.20;1024.00;;;;;;5090781;28;20568;-64
2021/05/15 12:10:23;;;;;;;4.32;2.55;;;640.10;998.40;;;;;;5090494;28;20020;-61
2021/05/15 12:13:01;;;;;;;6.22;2.50;;;615.30;998.40;;;;;;5089960;28;20029;-57
2021/05/15 12:15:30;;;;;;;7.57;3.35;;;615.30;998.40;;;;;;5090353;28;20046;-60
2021/05/15 12:18:00;;;;;;;5.82;3.28;;;640.20;998.40;;;;;;5090088;28;20490;-59
2021/05/15 12:20:30;;;;;;;6.75;3.28;;;640.00;998.40;;;;;;5090461;28;20032;-58
2021/05/15 12:23:06;;;;;;;7.38;2.58;;;640.60;972.80;;;;;;5090056;28;20024;-57